createdAt,value
2022-08-18T00:01:45.087Z,5.28
2022-08-18T00:04:33.081Z,4.57
2022-08-18T00:06:50.725Z,5.00
2022-08-18T00:09:12.348Z,5.20
2022-08-18T00:11:41.097Z,5.30
2022-08-18T00:14:03.858Z,5.43
2022-08-18T00:16:25.404Z,6.38
2022-08-18T00:18:46.825Z,5.60
2022-08-18T00:21:08.305Z,5.28
2022-08-18T00:23:32.503Z,5.20
2022-08-18T00:25:55.315Z,4.78
2022-08-18T00:28:16.794Z,4.88
2022-08-18T00:30:38.372Z,5.18
2022-08-18T00:33:01.193Z,5.13
2022-08-18T00:35:37.773Z,5.03
2022-08-18T00:38:01.607Z,5.00
2022-08-18T00:40:38.286Z,4.57
2022-08-18T00:43:04.073Z,5.28
2022-08-18T00:45:32.955Z,4.75
2022-08-18T00:47:55.077Z,5.13
2022-08-18T00:50:22.467Z,4.85
2022-08-18T00:52:52.501Z,5.85
2022-08-18T00:55:15.190Z,5.07
2022-08-18T00:57:36.716Z,5.57
2022-08-18T01:00:09.782Z,5.40
2022-08-18T01:02:37.809Z,5.03
2022-08-18T01:05:06.551Z,4.50
2022-08-18T01:07:36.358Z,5.20
2022-08-18T01:09:59.780Z,5.20
2022-08-18T01:12:46.360Z,5.15
2022-08-18T01:15:03.138Z,5.85
2022-08-18T01:17:44.405Z,5.30
2022-08-18T01:20:24.852Z,5.78
2022-08-18T01:22:49.299Z,4.85
2022-08-18T01:25:29.591Z,5.28
2022-08-18T01:27:51.505Z,5.38
2022-08-18T01:30:17.429Z,4.80
2022-08-18T01:32:40.787Z,5.28
2022-08-18T01:35:02.744Z,5.35
2022-08-18T01:37:24.924Z,6.15
2022-08-18T01:41:23.494Z,5.38
2022-08-18T01:42:28.967Z,5.45
2022-08-18T01:44:51.401Z,5.20
2022-08-18T01:47:12.864Z,5.35
2022-08-18T01:49:34.876Z,5.35
2022-08-18T01:51:56.330Z,5.75
2022-08-18T01:54:17.814Z,6.05
2022-08-18T01:56:41.015Z,6.55
2022-08-18T01:59:02.506Z,6.43
2022-08-18T02:01:36.450Z,6.50
2022-08-18T02:04:31.045Z,6.20
2022-08-18T02:06:42.363Z,6.43
2022-08-18T02:09:09.415Z,6.85
2022-08-18T02:11:31.189Z,6.78
2022-08-18T02:13:53.187Z,6.40
2022-08-18T02:16:14.799Z,6.30
2022-08-18T02:18:48.304Z,6.10
2022-08-18T02:21:19.089Z,6.63
2022-08-18T02:23:44.937Z,6.22
2022-08-18T02:26:17.783Z,5.90
2022-08-18T02:28:40.616Z,5.93
2022-08-18T02:31:11.344Z,6.60
2022-08-18T02:33:33.890Z,7.47
2022-08-18T02:35:55.594Z,6.18
2022-08-18T02:38:17.411Z,6.38
2022-08-18T02:40:39.385Z,6.75
2022-08-18T02:43:06.925Z,6.03
2022-08-18T02:45:29.002Z,6.53
2022-08-18T02:47:54.676Z,6.35
2022-08-18T02:50:16.934Z,5.38
2022-08-18T02:52:39.411Z,7.00
2022-08-18T02:55:02.442Z,6.60
2022-08-18T02:57:23.904Z,6.68
2022-08-18T02:59:46.918Z,6.32
2022-08-18T03:02:10.267Z,6.10
2022-08-18T03:04:32.409Z,6.53
2022-08-18T03:06:55.231Z,6.82
2022-08-18T03:09:18.480Z,6.28
2022-08-18T03:11:40.530Z,6.43
2022-08-18T03:14:05.650Z,6.75
2022-08-18T03:16:31.135Z,6.47
2022-08-18T03:18:53.714Z,6.60
2022-08-18T03:21:24.049Z,6.22
2022-08-18T03:23:45.586Z,7.00
2022-08-18T03:26:24.696Z,6.90
2022-08-18T03:28:48.762Z,6.53
2022-08-18T03:31:11.866Z,6.20
2022-08-18T03:33:33.813Z,6.75
2022-08-18T03:35:55.259Z,7.45
2022-08-18T03:38:16.866Z,7.25
2022-08-18T03:40:38.398Z,6.85
2022-08-18T03:43:06.389Z,7.30
2022-08-18T03:45:47.810Z,7.10
2022-08-18T03:48:11.015Z,7.15
2022-08-18T03:50:32.689Z,7.15
2022-08-18T03:52:54.304Z,6.95
2022-08-18T03:55:16.284Z,6.18
2022-08-18T03:57:39.073Z,6.68
2022-08-18T04:00:01.042Z,6.47
2022-08-18T04:02:23.915Z,6.97
2022-08-18T04:04:45.421Z,6.45
2022-08-18T04:07:14.304Z,6.13
2022-08-18T04:09:38.228Z,6.63
2022-08-18T04:12:06.947Z,5.72
2022-08-18T04:14:32.391Z,5.90
2022-08-18T04:16:53.938Z,6.60
2022-08-18T04:19:26.554Z,6.43
2022-08-18T04:21:53.115Z,6.82
2022-08-18T04:24:14.735Z,6.35
2022-08-18T04:26:39.553Z,7.18
2022-08-18T04:29:01.721Z,6.55
2022-08-18T04:31:24.794Z,6.47
2022-08-18T04:33:46.273Z,6.38
2022-08-18T04:36:20.685Z,6.57
2022-08-18T04:38:42.688Z,6.90
2022-08-18T04:41:05.506Z,7.00
2022-08-18T04:43:27.110Z,6.47
2022-08-18T04:45:50.666Z,6.00
2022-08-18T04:48:13.518Z,6.40
2022-08-18T04:50:37.071Z,6.20
2022-08-18T04:53:17.214Z,6.65
2022-08-18T04:55:38.636Z,7.05
2022-08-18T04:58:00.824Z,6.93
2022-08-18T05:00:22.302Z,7.35
2022-08-18T05:02:43.973Z,7.32
2022-08-18T05:05:06.394Z,7.63
2022-08-18T05:07:27.878Z,7.10
2022-08-18T05:09:49.784Z,6.97
2022-08-18T05:12:14.229Z,6.38
2022-08-18T05:14:36.236Z,6.43
2022-08-18T05:17:01.703Z,7.20
2022-08-18T05:19:26.686Z,6.75
2022-08-18T05:21:51.605Z,6.63
2022-08-18T05:24:13.730Z,7.47
2022-08-18T05:26:36.736Z,7.53
2022-08-18T05:29:17.798Z,6.65
2022-08-18T05:31:40.391Z,7.20
2022-08-18T05:34:04.036Z,7.25
2022-08-18T05:36:25.411Z,7.53
2022-08-18T05:38:58.726Z,7.28
2022-08-18T05:41:29.943Z,7.35
2022-08-18T05:43:52.543Z,7.75
2022-08-18T05:46:14.213Z,7.55
2022-08-18T05:48:42.735Z,7.38
2022-08-18T05:51:19.957Z,7.55
2022-08-18T05:54:06.125Z,7.45
2022-08-18T05:56:47.649Z,7.47
2022-08-18T05:59:11.020Z,7.40
2022-08-18T06:01:42.565Z,7.55
2022-08-18T06:04:26.461Z,7.53
2022-08-18T06:06:49.337Z,7.28
2022-08-18T06:09:17.558Z,8.05
2022-08-18T06:11:39.229Z,7.85
2022-08-18T06:14:01.388Z,7.53
2022-08-18T06:16:29.716Z,7.53
2022-08-18T06:18:59.438Z,7.78
2022-08-18T06:21:59.464Z,7.45
2022-08-18T06:24:24.577Z,7.70
2022-08-18T06:27:03.627Z,7.63
2022-08-18T06:29:47.263Z,7.93
2022-08-18T06:32:36.947Z,8.25
2022-08-18T06:35:18.538Z,8.20
2022-08-18T06:38:25.595Z,7.72
2022-08-18T06:40:48.631Z,8.10
2022-08-18T06:43:15.867Z,8.43
2022-08-18T06:45:40.083Z,8.40
2022-08-18T06:48:12.673Z,7.90
2022-08-18T06:50:46.721Z,7.65
2022-08-18T06:53:26.420Z,7.05
2022-08-18T06:55:50.612Z,9.15
2022-08-18T06:58:32.707Z,9.00
2022-08-18T07:01:05.796Z,9.35
2022-08-18T07:03:47.956Z,8.65
2022-08-18T07:06:24.580Z,9.32
2022-08-18T07:08:51.820Z,9.98
2022-08-18T07:11:23.115Z,9.13
2022-08-18T07:14:09.441Z,9.48
2022-08-18T07:16:57.817Z,9.38
2022-08-18T07:19:29.425Z,9.60
2022-08-18T07:25:34.624Z,10.05
2022-08-18T07:28:08.234Z,9.40
2022-08-18T07:30:54.810Z,8.77
2022-08-18T07:33:32.127Z,25.90
2022-08-18T07:36:07.818Z,12.25
2022-08-18T07:38:43.163Z,11.40
2022-08-18T07:41:37.017Z,10.63
2022-08-18T07:44:28.999Z,11.95
2022-08-18T07:47:02.333Z,12.88
2022-08-18T07:52:43.834Z,28.25
2022-08-18T08:01:45.557Z,28.55
2022-08-18T08:04:27.042Z,28.83
2022-08-18T08:07:22.515Z,25.83
2022-08-18T08:09:36.748Z,26.17
2022-08-18T08:12:11.155Z,25.73
2022-08-18T08:14:32.553Z,21.60
2022-08-18T08:17:30.484Z,22.75
2022-08-18T08:20:11.226Z,21.83
2022-08-18T08:22:52.967Z,23.83
2022-08-18T08:25:46.267Z,24.38
2022-08-18T08:28:42.770Z,25.20
2022-08-18T08:31:33.314Z,28.33
2022-08-18T08:34:06.018Z,29.40
2022-08-18T08:36:33.394Z,29.63
2022-08-18T08:38:57.024Z,32.28
2022-08-18T08:41:32.664Z,32.72
2022-08-18T08:44:20.777Z,34.53
2022-08-18T08:46:50.358Z,34.65
2022-08-18T08:49:28.881Z,34.22
2022-08-18T08:51:57.984Z,34.30
2022-08-18T08:54:24.778Z,35.15
2022-08-18T08:56:49.721Z,35.10
2022-08-18T08:59:15.215Z,35.03
2022-08-18T09:01:54.939Z,36.30
2022-08-18T09:04:37.706Z,36.40
2022-08-18T09:07:30.352Z,34.13
2022-08-18T09:10:24.632Z,31.42
2022-08-18T09:13:05.459Z,31.40
2022-08-18T09:15:58.332Z,32.42
2022-08-18T09:18:44.969Z,34.22
2022-08-18T09:21:34.459Z,35.25
2022-08-18T09:28:10.060Z,42.97
2022-08-18T09:30:53.730Z,39.72
2022-08-18T09:33:20.648Z,41.05
2022-08-18T09:35:54.924Z,38.30
2022-08-18T09:38:42.424Z,38.05
2022-08-18T09:41:32.886Z,36.72
2022-08-18T09:44:11.840Z,37.20
2022-08-18T09:46:43.837Z,39.35
2022-08-18T09:49:26.433Z,42.35
2022-08-18T09:51:50.438Z,41.20
2022-08-18T09:54:20.840Z,42.63
2022-08-18T09:56:53.964Z,42.45
2022-08-18T09:59:37.056Z,43.30
2022-08-18T10:02:06.510Z,42.13
2022-08-18T10:04:51.328Z,42.88
2022-08-18T10:07:38.773Z,41.92
2022-08-18T10:11:00.827Z,42.45
2022-08-18T10:13:33.920Z,41.55
2022-08-18T10:16:22.218Z,42.10
2022-08-18T10:19:15.088Z,41.33
2022-08-18T10:21:55.994Z,41.08
2022-08-18T10:24:36.918Z,42.50
2022-08-18T10:27:02.598Z,44.95
2022-08-18T10:29:32.278Z,44.03
2022-08-18T10:31:57.646Z,41.47
2022-08-18T10:34:51.416Z,40.13
2022-08-18T10:37:20.084Z,37.65
2022-08-18T10:39:52.935Z,41.53
2022-08-18T10:45:36.596Z,38.97
2022-08-18T10:48:16.882Z,40.60
2022-08-18T10:50:48.976Z,40.88
2022-08-18T10:53:39.161Z,38.55
2022-08-18T10:56:26.848Z,38.17
2022-08-18T10:59:28.217Z,40.97
2022-08-18T11:02:32.050Z,41.55
2022-08-18T11:07:42.932Z,39.15
2022-08-18T11:10:30.570Z,40.05
2022-08-18T11:13:17.928Z,41.55
2022-08-18T11:15:52.466Z,39.72
2022-08-18T11:18:32.647Z,41.45
2022-08-18T11:21:42.852Z,40.20
2022-08-18T11:24:27.122Z,40.00
2022-08-18T11:26:54.767Z,38.25
2022-08-18T11:29:29.003Z,37.72
2022-08-18T11:32:12.197Z,35.33
2022-08-18T11:34:53.073Z,34.20
2022-08-18T11:37:49.550Z,37.00
2022-08-18T11:41:08.674Z,38.70
2022-08-18T11:43:23.850Z,36.22
2022-08-18T11:45:48.180Z,37.70
2022-08-18T11:48:15.588Z,36.42
2022-08-18T11:51:01.857Z,38.72
2022-08-18T11:53:36.005Z,36.97
2022-08-18T11:56:30.538Z,37.75
2022-08-18T11:59:52.340Z,35.10
2022-08-18T12:02:21.408Z,36.47
2022-08-18T12:04:45.557Z,34.78
2022-08-18T12:07:11.460Z,36.10
2022-08-18T12:10:17.917Z,36.83
2022-08-18T12:15:43.435Z,36.45
2022-08-18T12:18:06.387Z,34.58
2022-08-18T12:20:28.329Z,34.72
2022-08-18T12:22:51.772Z,34.58
2022-08-18T12:25:16.343Z,31.67
2022-08-18T12:27:47.155Z,33.08
2022-08-18T12:30:16.806Z,30.77
2022-08-18T12:32:48.879Z,30.83
2022-08-18T12:35:12.253Z,30.48
2022-08-18T12:40:15.258Z,31.13
2022-08-18T12:42:37.068Z,30.85
2022-08-18T12:44:58.558Z,33.70
2022-08-18T12:47:23.038Z,34.83
2022-08-18T12:49:44.545Z,34.70
2022-08-18T12:52:06.999Z,35.22
2022-08-18T12:54:35.900Z,36.17
2022-08-18T12:56:58.077Z,37.13
2022-08-18T12:59:20.154Z,33.83
2022-08-18T13:01:41.848Z,33.92
2022-08-18T13:04:12.949Z,31.02
2022-08-18T13:06:40.797Z,33.35
2022-08-18T13:09:16.735Z,34.50
2022-08-18T13:11:49.312Z,34.38
2022-08-18T13:14:12.035Z,32.75
2022-08-18T13:16:47.825Z,33.35
2022-08-18T13:19:16.348Z,30.40
2022-08-18T13:21:41.458Z,29.95
2022-08-18T13:24:05.227Z,28.10
2022-08-18T13:26:36.044Z,27.55
2022-08-18T13:28:58.608Z,25.83
2022-08-18T13:31:20.353Z,32.88
2022-08-18T13:33:59.775Z,32.38
2022-08-18T13:36:22.661Z,25.13
2022-08-18T13:38:44.115Z,27.77
2022-08-18T13:41:06.402Z,30.35
2022-08-18T13:43:34.509Z,27.80
2022-08-18T13:45:56.568Z,26.17
2022-08-18T13:48:18.101Z,29.35
2022-08-18T13:50:40.357Z,30.00
2022-08-18T13:53:03.273Z,30.85
2022-08-18T13:55:29.115Z,30.95
2022-08-18T13:57:50.660Z,28.90
2022-08-18T14:00:29.708Z,26.15
2022-08-18T14:02:55.360Z,28.33
2022-08-18T14:05:18.109Z,28.95
2022-08-18T14:07:43.033Z,28.70
2022-08-18T14:10:08.186Z,31.15
2022-08-18T14:12:37.506Z,24.05
2022-08-18T14:15:01.605Z,22.65
2022-08-18T14:17:25.462Z,23.50
2022-08-18T14:20:05.673Z,24.73
2022-08-18T14:22:51.425Z,23.98
2022-08-18T14:25:33.265Z,23.52
2022-08-18T14:27:56.784Z,22.88
2022-08-18T14:30:19.029Z,21.90
2022-08-18T14:32:49.226Z,22.38
2022-08-18T14:35:33.835Z,19.23
2022-08-18T14:37:56.279Z,18.30
2022-08-18T14:40:20.171Z,18.23
2022-08-18T14:42:54.332Z,18.95
2022-08-18T14:51:10.309Z,20.52
2022-08-18T14:56:22.646Z,19.75
2022-08-18T14:58:49.785Z,17.67
2022-08-18T15:01:13.339Z,18.25
2022-08-18T15:03:38.919Z,18.98
2022-08-18T15:06:04.496Z,18.17
2022-08-18T15:08:26.704Z,18.65
2022-08-18T15:10:48.824Z,17.88
2022-08-18T15:13:13.083Z,16.95
2022-08-18T15:15:50.852Z,17.30
2022-08-18T15:18:13.413Z,15.75
2022-08-18T15:20:54.955Z,14.80
2022-08-18T15:23:35.118Z,15.95
2022-08-18T15:25:56.794Z,17.98
2022-08-18T15:28:23.732Z,22.23
2022-08-18T15:30:51.063Z,19.75
2022-08-18T15:33:16.765Z,20.95
2022-08-18T15:35:44.186Z,22.73
2022-08-18T15:38:07.021Z,22.73
2022-08-18T15:40:30.751Z,18.60
2022-08-18T15:43:03.680Z,21.13
2022-08-18T15:45:28.582Z,21.10
2022-08-18T15:47:56.951Z,19.95
2022-08-18T15:50:26.052Z,20.45
2022-08-18T15:53:08.022Z,19.55
2022-08-18T15:55:35.896Z,18.70
2022-08-18T15:57:59.748Z,19.83
2022-08-18T16:00:25.012Z,21.05
2022-08-18T16:02:53.482Z,20.08
2022-08-18T16:05:15.631Z,18.75
2022-08-18T16:07:41.009Z,19.70
2022-08-18T16:10:06.961Z,20.17
2022-08-18T16:12:28.457Z,20.95
2022-08-18T16:14:52.871Z,21.67
2022-08-18T16:17:23.607Z,21.92
2022-08-18T16:19:46.303Z,18.98
2022-08-18T16:22:07.764Z,23.02
2022-08-18T16:24:29.224Z,24.60
2022-08-18T16:26:51.965Z,26.13
2022-08-18T16:29:13.458Z,26.08
2022-08-18T16:31:34.933Z,24.30
2022-08-18T16:33:57.865Z,24.50
2022-08-18T16:36:19.617Z,25.50
2022-08-18T16:38:43.290Z,26.45
2022-08-18T16:41:14.939Z,25.75
2022-08-18T16:43:37.620Z,26.15
2022-08-18T16:45:59.612Z,27.23
2022-08-18T16:48:21.812Z,25.95
2022-08-18T16:50:45.312Z,26.23
2022-08-18T16:53:06.844Z,24.50
2022-08-18T16:55:28.381Z,25.25
2022-08-18T16:58:10.669Z,24.55
2022-08-18T17:00:54.908Z,23.15
2022-08-18T17:03:35.574Z,22.80
2022-08-18T17:06:06.549Z,22.08
2022-08-18T17:08:28.410Z,22.00
2022-08-18T17:10:50.324Z,22.23
2022-08-18T17:13:11.865Z,22.15
2022-08-18T17:15:33.376Z,23.73
2022-08-18T17:17:54.896Z,24.42
2022-08-18T17:20:18.822Z,24.33
2022-08-18T17:22:40.740Z,26.60
2022-08-18T17:25:03.290Z,28.13
2022-08-18T17:27:37.302Z,26.33
2022-08-18T17:30:13.763Z,26.20
2022-08-18T17:32:53.255Z,27.50
2022-08-18T17:35:36.830Z,29.05
2022-08-18T17:38:07.190Z,28.65
2022-08-18T17:40:48.014Z,27.67
2022-08-18T17:43:13.889Z,29.25
2022-08-18T17:45:36.032Z,28.33
2022-08-18T17:48:11.751Z,29.05
2022-08-18T17:50:56.079Z,29.08
2022-08-18T17:53:21.726Z,29.50
2022-08-18T17:55:49.739Z,27.77
2022-08-18T17:58:29.613Z,29.02
2022-08-18T18:00:51.068Z,29.70
2022-08-18T18:03:13.421Z,29.05
2022-08-18T18:05:43.053Z,28.95
2022-08-18T18:08:05.510Z,28.75
2022-08-18T18:11:03.890Z,28.15
2022-08-18T18:13:29.242Z,29.40
2022-08-18T18:15:53.854Z,27.35
2022-08-18T18:18:41.757Z,28.40
2022-08-18T18:21:19.721Z,27.90
2022-08-18T18:23:48.775Z,26.40
2022-08-18T18:26:22.760Z,25.70
2022-08-18T18:28:44.270Z,27.95
2022-08-18T18:31:35.112Z,26.67
2022-08-18T18:34:06.856Z,27.35
2022-08-18T18:36:47.667Z,27.90
2022-08-18T18:39:17.160Z,27.45
2022-08-18T18:41:40.563Z,27.80
2022-08-18T18:44:09.414Z,27.77
2022-08-18T18:46:35.254Z,29.17
2022-08-18T18:48:56.632Z,28.23
2022-08-18T18:51:33.679Z,26.80
2022-08-18T18:54:14.984Z,29.27
2022-08-18T18:56:52.679Z,29.30
2022-08-18T18:59:25.791Z,28.45
2022-08-18T19:02:34.161Z,29.48
2022-08-18T19:05:32.620Z,27.73
2022-08-18T19:08:35.252Z,27.95
2022-08-18T19:11:20.872Z,28.75
2022-08-18T19:14:09.455Z,28.00
2022-08-18T19:19:46.703Z,25.98
2022-08-18T19:22:19.371Z,28.00
2022-08-18T19:25:07.449Z,28.60
2022-08-18T19:27:56.238Z,29.85
2022-08-18T19:31:07.751Z,28.65
2022-08-18T19:33:49.669Z,28.38
2022-08-18T19:36:54.882Z,27.60
2022-08-18T19:39:47.289Z,26.42
2022-08-18T19:42:31.596Z,26.73
2022-08-18T19:45:31.843Z,27.17
2022-08-18T19:48:15.155Z,26.23
2022-08-18T19:51:04.054Z,27.88
2022-08-18T19:54:25.073Z,26.73
2022-08-18T19:57:24.878Z,27.85
2022-08-18T20:00:23.520Z,27.08
2022-08-18T20:03:33.458Z,27.73
2022-08-18T20:06:35.875Z,28.17
2022-08-18T20:09:35.971Z,29.00
2022-08-18T20:14:54.225Z,29.83
2022-08-18T20:17:23.598Z,31.33
2022-08-18T20:20:15.107Z,30.35
2022-08-18T20:22:48.747Z,31.85
2022-08-18T20:25:53.052Z,32.10
2022-08-18T20:28:40.694Z,31.80
2022-08-18T20:31:47.336Z,31.17
2022-08-18T20:34:30.767Z,29.95
2022-08-18T20:37:03.025Z,29.52
2022-08-18T20:40:03.655Z,29.45
2022-08-18T20:42:55.928Z,29.15
2022-08-18T20:45:48.692Z,29.27
2022-08-18T20:51:58.342Z,29.73
2022-08-18T20:55:00.490Z,29.95
2022-08-18T20:57:55.568Z,29.38
2022-08-18T21:00:27.818Z,30.42
2022-08-18T21:03:20.292Z,28.90
2022-08-18T21:08:54.362Z,28.85
2022-08-18T21:11:29.684Z,31.25
2022-08-18T21:13:59.599Z,31.25
2022-08-18T21:16:38.639Z,29.35
2022-08-18T21:19:11.343Z,29.73
2022-08-18T21:21:51.735Z,30.45
2022-08-18T21:24:35.666Z,29.02
2022-08-18T21:27:08.245Z,30.35
2022-08-18T21:29:38.248Z,28.85
2022-08-18T21:32:17.798Z,29.25
2022-08-18T21:34:48.055Z,30.35
2022-08-18T21:37:28.062Z,31.27
2022-08-18T21:48:17.767Z,31.05
2022-08-18T21:51:00.966Z,31.55
2022-08-18T21:53:29.773Z,30.80
2022-08-18T21:55:58.055Z,32.33
2022-08-18T21:58:46.130Z,30.77
2022-08-18T22:01:17.804Z,28.27
2022-08-18T22:04:18.112Z,29.13
2022-08-18T22:10:20.969Z,28.55
2022-08-18T22:13:16.931Z,29.83
2022-08-18T22:15:52.767Z,27.55
2022-08-18T22:18:21.871Z,30.48
2022-08-18T22:20:50.399Z,31.95
2022-08-18T22:26:24.964Z,28.55
2022-08-18T22:29:16.770Z,30.40
2022-08-18T22:31:49.117Z,29.30
2022-08-18T22:34:27.401Z,29.17
2022-08-18T22:37:06.331Z,30.10
2022-08-18T22:39:55.340Z,29.45
2022-08-18T22:42:30.400Z,29.63
2022-08-18T22:45:04.918Z,27.80
2022-08-18T22:47:45.135Z,28.70
2022-08-18T22:50:16.377Z,28.83
2022-08-18T22:52:51.296Z,30.75
2022-08-18T22:55:28.669Z,30.75
2022-08-18T23:00:45.265Z,29.27
2022-08-18T23:03:18.692Z,26.83
2022-08-18T23:05:58.138Z,27.70
2022-08-18T23:08:55.355Z,27.70
2022-08-18T23:11:30.051Z,28.63
2022-08-18T23:14:06.137Z,28.42
2022-08-18T23:16:32.894Z,28.52
2022-08-18T23:18:57.970Z,29.15
2022-08-18T23:21:34.981Z,28.00
2022-08-18T23:24:06.368Z,29.25
2022-08-18T23:26:58.640Z,29.13
2022-08-18T23:29:26.619Z,28.70
2022-08-18T23:31:55.000Z,28.55
2022-08-18T23:34:33.110Z,28.55
2022-08-18T23:39:49.847Z,29.77
2022-08-18T23:42:16.053Z,29.50
2022-08-18T23:44:52.207Z,31.00
2022-08-18T23:47:23.114Z,30.05
2022-08-18T23:50:12.895Z,28.33
2022-08-18T23:53:11.527Z,28.58
2022-08-18T23:55:38.856Z,28.38
2022-08-18T23:58:14.014Z,29.30
